Time;durP1;ratioP1;P1;durP2;ratioP2;P2;SDS_P1;SDS_P2;PMS_P1;PMS_P2;Temp;Humidity;BMP_temperature;BMP_pressure;BME280_temperature;BME280_humidity;BME280_pressure;Samples;Min_cycle;Max_cycle;Signal;HPM_P1;HPM_P2
2021/04/16 00:00:44;;;;;;;0.70;0.50;;;;;;;;;;5009947;28;20430;-75
2021/04/16 00:03:12;;;;;;;1.37;1.27;;;;;;;;;;5011304;28;20460;-75
2021/04/16 00:05:38;;;;;;;0.70;0.50;;;;;;;;;;5011407;28;20417;-75
2021/04/16 00:08:07;;;;;;;0.70;0.40;;;;;;;;;;5014288;28;20459;-76
2021/04/16 00:10:38;;;;;;;0.70;0.50;;;;;;;;;;5015572;28;20413;-74
2021/04/16 00:13:05;;;;;;;0.70;0.60;;;;;;;;;;5012734;28;20460;-75
2021/04/16 00:15:32;;;;;;;0.70;0.50;;;;;;;;;;5013099;28;20434;-75
2021/04/16 00:17:58;;;;;;;0.70;0.40;;;;;;;;;;5014621;28;20882;-75
2021/04/16 00:20:27;;;;;;;0.80;0.50;;;;;;;;;;5014454;28;20451;-75
2021/04/16 00:22:53;;;;;;;0.70;0.60;;;;;;;;;;5013304;28;20554;-74
2021/04/16 00:25:20;;;;;;;0.70;0.50;;;;;;;;;;5003726;28;20494;-75
2021/04/16 00:27:46;;;;;;;0.70;0.47;;;;;;;;;;4995016;28;20417;-75
2021/04/16 00:30:13;;;;;;;0.70;0.40;;;;;;;;;;4994958;28;20468;-75
2021/04/16 00:32:39;;;;;;;0.70;0.50;;;;;;;;;;4993878;28;20426;-75
2021/04/16 00:35:06;;;;;;;1.03;0.60;;;;;;;;;;5009134;28;20803;-76
2021/04/16 00:37:32;;;;;;;2.10;0.80;;;;;;;;;;5016523;28;20428;-75
2021/04/16 00:39:58;;;;;;;0.90;0.60;;;;;;;;;;5040146;28;20493;-75
2021/04/16 00:42:26;;;;;;;0.70;0.40;;;;;;;;;;5040350;28;20406;-75
2021/04/16 00:44:52;;;;;;;0.90;0.60;;;;;;;;;;5039754;28;20424;-75
2021/04/16 00:47:19;;;;;;;0.90;0.60;;;;;;;;;;5039330;28;20426;-75
2021/04/16 00:49:46;;;;;;;0.70;0.50;;;;;;;;;;5039407;28;20452;-75
2021/04/16 00:52:17;;;;;;;0.70;0.40;;;;;;;;;;5038790;28;20502;-76
2021/04/16 00:54:46;;;;;;;0.70;0.50;;;;;;;;;;5038380;28;20469;-75
2021/04/16 00:57:13;;;;;;;1.10;0.60;;;;;;;;;;5025251;28;20476;-75
2021/04/16 00:59:42;;;;;;;0.70;0.50;;;;;;;;;;5014041;28;20421;-75
2021/04/16 01:02:11;;;;;;;2.60;0.87;;;;;;;;;;5013836;28;20446;-76
2021/04/16 01:04:37;;;;;;;0.87;0.73;;;;;;;;;;5014064;28;20400;-75
2021/04/16 01:07:04;;;;;;;0.80;0.60;;;;;;;;;;5013330;28;20415;-75
2021/04/16 01:09:30;;;;;;;0.90;0.70;;;;;;;;;;5016685;28;20527;-76
2021/04/16 01:11:57;;;;;;;0.77;0.50;;;;;;;;;;5013319;28;20463;-75
2021/04/16 01:14:23;;;;;;;0.70;0.50;;;;;;;;;;5013749;28;20514;-75
2021/04/16 01:16:49;;;;;;;0.70;0.50;;;;;;;;;;5012394;28;20441;-75
2021/04/16 01:19:25;;;;;;;0.80;0.50;;;;;;;;;;5013485;28;20920;-74
2021/04/16 01:22:01;;;;;;;0.70;0.40;;;;;;;;;;5012213;28;20406;-75
2021/04/16 01:24:28;;;;;;;0.70;0.40;;;;;;;;;;5012646;28;21007;-75
2021/04/16 01:26:55;;;;;;;0.90;0.73;;;;;;;;;;5013795;28;20406;-76
2021/04/16 01:29:22;;;;;;;0.90;0.60;;;;;;;;;;5013509;28;21048;-74
2021/04/16 01:31:48;;;;;;;1.00;0.90;;;;;;;;;;5013340;28;20768;-76
2021/04/16 01:34:15;;;;;;;0.70;0.50;;;;;;;;;;5012379;28;20433;-75
2021/04/16 01:36:41;;;;;;;2.10;2.00;;;;;;;;;;5013241;28;20808;-75
2021/04/16 01:39:07;;;;;;;1.00;0.50;;;;;;;;;;5013613;28;20416;-75
2021/04/16 01:41:33;;;;;;;1.20;0.60;;;;;;;;;;5012890;28;20418;-75
2021/04/16 01:44:01;;;;;;;0.70;0.50;;;;;;;;;;5013255;28;21003;-75
2021/04/16 01:46:27;;;;;;;0.87;0.50;;;;;;;;;;5012883;28;20888;-74
2021/04/16 01:48:58;;;;;;;0.70;0.50;;;;;;;;;;5012926;28;20447;-74
2021/04/16 01:51:33;;;;;;;2.20;1.27;;;;;;;;;;5011127;28;20970;-76
2021/04/16 01:54:07;;;;;;;2.47;0.87;;;;;;;;;;5013062;28;20424;-74
2021/04/16 01:56:33;;;;;;;0.70;0.50;;;;;;;;;;5011474;28;20413;-76
2021/04/16 01:58:59;;;;;;;1.67;0.60;;;;;;;;;;5011673;28;20899;-74
2021/04/16 02:01:25;;;;;;;0.70;0.40;;;;;;;;;;5019972;28;20430;-74
2021/04/16 02:03:50;;;;;;;0.70;0.40;;;;;;;;;;5005764;28;20975;-74
2021/04/16 02:06:16;;;;;;;0.80;0.60;;;;;;;;;;5022323;28;20418;-75
2021/04/16 02:08:42;;;;;;;8.23;0.90;;;;;;;;;;5010571;28;20434;-75
2021/04/16 02:11:08;;;;;;;1.07;0.70;;;;;;;;;;5004369;28;20416;-76
2021/04/16 02:13:34;;;;;;;0.70;0.60;;;;;;;;;;4992512;28;20430;-74
2021/04/16 02:16:00;;;;;;;1.37;0.70;;;;;;;;;;4992582;28;20915;-75
2021/04/16 02:18:29;;;;;;;0.90;0.50;;;;;;;;;;5005056;28;20416;-75
2021/04/16 02:20:57;;;;;;;0.70;0.50;;;;;;;;;;5011664;28;20413;-74
2021/04/16 02:23:25;;;;;;;1.97;1.33;;;;;;;;;;5011860;28;20942;-75
2021/04/16 02:25:51;;;;;;;0.77;0.67;;;;;;;;;;5011204;28;20499;-73
2021/04/16 02:28:17;;;;;;;0.70;0.40;;;;;;;;;;5011898;28;20794;-74
2021/04/16 02:30:46;;;;;;;0.73;0.57;;;;;;;;;;5011725;28;20466;-74
2021/04/16 02:33:12;;;;;;;0.80;0.50;;;;;;;;;;5011725;28;20956;-74
2021/04/16 02:35:38;;;;;;;0.70;0.40;;;;;;;;;;5012226;28;20458;-74
2021/04/16 02:38:06;;;;;;;0.70;0.50;;;;;;;;;;5011811;28;20417;-74
2021/04/16 02:40:32;;;;;;;0.70;0.40;;;;;;;;;;5010418;28;20483;-74
2021/04/16 02:42:58;;;;;;;1.30;0.70;;;;;;;;;;5011323;28;21095;-73
2021/04/16 02:45:26;;;;;;;0.70;0.40;;;;;;;;;;5007107;28;20416;-73
2021/04/16 02:47:52;;;;;;;0.90;0.60;;;;;;;;;;4991643;28;20484;-74
2021/04/16 02:50:20;;;;;;;0.70;0.50;;;;;;;;;;4975749;28;20424;-73
2021/04/16 02:52:46;;;;;;;1.20;0.83;;;;;;;;;;5015916;28;20457;-72
2021/04/16 02:55:12;;;;;;;0.70;0.50;;;;;;;;;;5011959;28;20400;-74
2021/04/16 02:57:38;;;;;;;2.10;0.70;;;;;;;;;;5010974;28;20409;-73
2021/04/16 03:00:06;;;;;;;0.90;0.60;;;;;;;;;;5010194;28;20419;-74
2021/04/16 03:02:32;;;;;;;0.90;0.50;;;;;;;;;;5010860;28;20457;-73
2021/04/16 03:04:58;;;;;;;0.90;0.77;;;;;;;;;;5011799;28;20430;-74
2021/04/16 03:07:24;;;;;;;0.90;0.50;;;;;;;;;;5043476;28;20943;-74
2021/04/16 03:09:50;;;;;;;0.70;0.60;;;;;;;;;;5016090;28;20475;-75
2021/04/16 03:12:16;;;;;;;1.07;0.50;;;;;;;;;;5011057;28;20833;-75
2021/04/16 03:14:42;;;;;;;1.00;0.50;;;;;;;;;;5010182;28;20982;-76
2021/04/16 03:17:08;;;;;;;0.70;0.47;;;;;;;;;;5001678;28;20406;-76
2021/04/16 03:19:34;;;;;;;4.10;0.93;;;;;;;;;;4990602;28;20430;-74
2021/04/16 03:22:00;;;;;;;0.80;0.50;;;;;;;;;;4999947;28;20409;-75
2021/04/16 03:24:26;;;;;;;1.00;0.87;;;;;;;;;;5010896;28;20534;-74
2021/04/16 03:26:52;;;;;;;0.80;0.50;;;;;;;;;;5010005;28;20415;-75
2021/04/16 03:29:18;;;;;;;0.70;0.50;;;;;;;;;;5009808;28;20852;-76
2021/04/16 03:31:45;;;;;;;0.80;0.60;;;;;;;;;;5010835;28;20452;-75
2021/04/16 03:34:14;;;;;;;0.80;0.60;;;;;;;;;;5011893;28;20434;-74
2021/04/16 03:36:42;;;;;;;1.00;0.50;;;;;;;;;;5018128;28;20443;-75
2021/04/16 03:39:08;;;;;;;2.23;1.53;;;;;;;;;;4994788;28;20421;-73
2021/04/16 03:41:37;;;;;;;0.80;0.60;;;;;;;;;;4996032;28;20485;-73
2021/04/16 03:44:03;;;;;;;0.90;0.50;;;;;;;;;;5013244;28;20469;-74
2021/04/16 03:46:29;;;;;;;0.80;0.50;;;;;;;;;;5013370;28;20456;-73
2021/04/16 03:48:55;;;;;;;0.70;0.50;;;;;;;;;;5015415;28;20404;-75
2021/04/16 03:51:21;;;;;;;2.20;2.10;;;;;;;;;;5013829;28;20419;-74
2021/04/16 03:53:46;;;;;;;0.80;0.70;;;;;;;;;;5015055;28;20429;-76
2021/04/16 03:56:13;;;;;;;0.73;0.50;;;;;;;;;;5015107;28;20416;-74
2021/04/16 03:58:39;;;;;;;1.17;0.90;;;;;;;;;;5015143;28;20407;-75
2021/04/16 04:01:06;;;;;;;0.80;0.50;;;;;;;;;;5013632;28;20431;-74
2021/04/16 04:03:32;;;;;;;1.23;0.83;;;;;;;;;;5008591;28;20465;-76
2021/04/16 04:05:58;;;;;;;0.70;0.40;;;;;;;;;;4996272;28;20420;-75
2021/04/16 04:08:25;;;;;;;0.80;0.50;;;;;;;;;;5010610;28;20408;-74
2021/04/16 04:10:53;;;;;;;1.20;0.57;;;;;;;;;;5014372;28;20510;-75
2021/04/16 04:13:19;;;;;;;0.80;0.60;;;;;;;;;;5002793;28;20436;-76
2021/04/16 04:15:46;;;;;;;0.90;0.70;;;;;;;;;;5015139;28;20400;-76
2021/04/16 04:18:12;;;;;;;3.20;1.03;;;;;;;;;;5010399;28;20466;-76
2021/04/16 04:20:39;;;;;;;0.83;0.53;;;;;;;;;;5010945;28;20425;-74
2021/04/16 04:23:08;;;;;;;1.43;0.87;;;;;;;;;;5014614;28;20492;-76
2021/04/16 04:25:35;;;;;;;3.00;0.83;;;;;;;;;;5012358;28;20397;-75
2021/04/16 04:28:02;;;;;;;0.80;0.53;;;;;;;;;;5013895;28;20910;-76
2021/04/16 04:30:29;;;;;;;0.93;0.80;;;;;;;;;;5010539;28;20404;-75
2021/04/16 04:32:55;;;;;;;0.80;0.60;;;;;;;;;;5013960;28;20443;-75
2021/04/16 04:35:22;;;;;;;1.33;1.07;;;;;;;;;;5014295;28;20827;-77
2021/04/16 04:37:48;;;;;;;0.70;0.50;;;;;;;;;;5007928;28;20408;-75
2021/04/16 04:40:15;;;;;;;1.40;1.10;;;;;;;;;;5007612;28;20477;-76
2021/04/16 04:42:41;;;;;;;1.83;1.70;;;;;;;;;;5013937;28;20456;-76
2021/04/16 04:45:07;;;;;;;2.50;0.80;;;;;;;;;;5031200;28;20442;-76
2021/04/16 04:47:36;;;;;;;1.37;0.70;;;;;;;;;;5037686;28;20428;-77
2021/04/16 04:50:01;;;;;;;1.10;0.80;;;;;;;;;;5044510;28;20421;-77
2021/04/16 04:52:32;;;;;;;1.27;0.67;;;;;;;;;;5058565;28;20440;-76
2021/04/16 04:55:01;;;;;;;0.90;0.53;;;;;;;;;;5041844;28;20408;-75
2021/04/16 04:57:28;;;;;;;0.70;0.50;;;;;;;;;;5005427;28;20413;-78
2021/04/16 04:59:54;;;;;;;0.70;0.50;;;;;;;;;;5003540;28;20428;-75
2021/04/16 05:02:22;;;;;;;0.73;0.53;;;;;;;;;;5013634;28;20412;-76
2021/04/16 05:04:48;;;;;;;1.20;1.10;;;;;;;;;;5013863;28;20503;-77
2021/04/16 05:07:16;;;;;;;0.77;0.50;;;;;;;;;;5014268;28;20779;-76
2021/04/16 05:09:45;;;;;;;2.93;1.10;;;;;;;;;;5025728;28;20421;-77
2021/04/16 05:12:11;;;;;;;1.37;1.27;;;;;;;;;;5014912;28;20999;-77
2021/04/16 05:14:37;;;;;;;0.70;0.50;;;;;;;;;;5009497;28;20448;-78
2021/04/16 05:17:04;;;;;;;1.13;1.03;;;;;;;;;;5015364;28;20463;-77
2021/04/16 05:19:30;;;;;;;0.80;0.57;;;;;;;;;;5021794;28;20408;-78
2021/04/16 05:21:58;;;;;;;1.20;0.83;;;;;;;;;;5037195;28;20873;-77
2021/04/16 05:24:25;;;;;;;0.87;0.73;;;;;;;;;;5038477;28;20465;-77
2021/04/16 05:26:51;;;;;;;0.80;0.60;;;;;;;;;;5013771;28;20417;-77
2021/04/16 05:29:17;;;;;;;3.13;0.80;;;;;;;;;;5012039;28;20781;-77
2021/04/16 05:31:43;;;;;;;1.67;1.33;;;;;;;;;;5013482;28;20404;-78
2021/04/16 05:34:11;;;;;;;0.80;0.60;;;;;;;;;;5013666;28;20743;-78
2021/04/16 05:36:37;;;;;;;1.70;0.90;;;;;;;;;;5011891;28;20492;-77
2021/04/16 05:39:03;;;;;;;3.60;1.63;;;;;;;;;;5013324;28;20435;-77
2021/04/16 05:41:29;;;;;;;1.03;0.60;;;;;;;;;;5017124;28;20405;-77
2021/04/16 05:43:55;;;;;;;1.47;0.80;;;;;;;;;;5012118;28;20619;-78
2021/04/16 05:46:21;;;;;;;0.90;0.60;;;;;;;;;;5017165;28;20440;-78
2021/04/16 05:48:47;;;;;;;1.03;0.70;;;;;;;;;;5023316;28;20435;-78
2021/04/16 05:51:13;;;;;;;0.80;0.60;;;;;;;;;;5013090;28;20413;-77
2021/04/16 05:53:39;;;;;;;0.80;0.63;;;;;;;;;;5012812;28;21016;-76
2021/04/16 05:56:08;;;;;;;4.13;1.00;;;;;;;;;;5015541;28;20416;-76
2021/04/16 05:58:34;;;;;;;2.10;1.20;;;;;;;;;;5013064;28;20413;-77
2021/04/16 06:01:00;;;;;;;1.10;0.70;;;;;;;;;;5011562;28;20783;-76
2021/04/16 06:03:26;;;;;;;1.30;1.07;;;;;;;;;;5012853;28;20448;-77
2021/04/16 06:05:52;;;;;;;0.83;0.60;;;;;;;;;;5017136;28;20766;-76
2021/04/16 06:08:20;;;;;;;0.90;0.80;;;;;;;;;;5013034;28;20425;-75
2021/04/16 06:10:47;;;;;;;1.10;0.70;;;;;;;;;;5012587;28;20393;-78
2021/04/16 06:13:13;;;;;;;0.70;0.50;;;;;;;;;;5011577;28;20450;-77
2021/04/16 06:15:39;;;;;;;1.43;0.50;;;;;;;;;;5012432;28;20496;-74
2021/04/16 06:18:07;;;;;;;1.10;1.00;;;;;;;;;;5010484;28;20437;-73
2021/04/16 06:20:33;;;;;;;1.10;0.93;;;;;;;;;;5012007;28;20476;-75
2021/04/16 06:22:59;;;;;;;0.97;0.83;;;;;;;;;;5011798;28;20462;-75
2021/04/16 06:25:31;;;;;;;1.50;1.00;;;;;;;;;;5011956;28;20414;-74
2021/04/16 06:27:57;;;;;;;1.53;0.80;;;;;;;;;;5002337;28;20417;-74
2021/04/16 06:30:23;;;;;;;1.33;0.70;;;;;;;;;;5008246;28;20421;-74
2021/04/16 06:33:18;;;;;;;1.83;1.73;;;;;;;;;;5009870;28;20443;-75
2021/04/16 06:35:52;;;;;;;1.53;0.50;;;;;;;;;;5007094;28;20742;-74
2021/04/16 06:38:19;;;;;;;1.10;0.50;;;;;;;;;;5007761;28;20423;-75
2021/04/16 06:40:50;;;;;;;1.57;0.60;;;;;;;;;;5008132;28;20433;-75
2021/04/16 06:43:18;;;;;;;2.80;1.00;;;;;;;;;;4997953;28;20540;-75
2021/04/16 06:45:44;;;;;;;1.10;0.87;;;;;;;;;;4992964;28;20414;-74
2021/04/16 06:48:10;;;;;;;0.90;0.70;;;;;;;;;;5011554;28;20409;-74
2021/04/16 06:50:38;;;;;;;3.77;1.33;;;;;;;;;;5011874;28;20826;-74
2021/04/16 06:53:13;;;;;;;1.00;0.57;;;;;;;;;;5010057;28;20445;-75
2021/04/16 06:55:49;;;;;;;1.73;1.40;;;;;;;;;;5011436;28;20409;-73
2021/04/16 06:58:17;;;;;;;1.00;0.60;;;;;;;;;;5010984;28;20883;-74
2021/04/16 07:00:46;;;;;;;0.90;0.60;;;;;;;;;;5009711;28;20510;-75
2021/04/16 07:03:12;;;;;;;2.30;1.00;;;;;;;;;;5010163;28;20449;-74
2021/04/16 07:05:41;;;;;;;1.10;1.00;;;;;;;;;;5017203;28;20520;-75
2021/04/16 07:08:08;;;;;;;1.33;1.07;;;;;;;;;;5017637;28;20437;-75
2021/04/16 07:10:39;;;;;;;0.80;0.60;;;;;;;;;;5014863;28;20508;-75
2021/04/16 07:13:06;;;;;;;0.90;0.60;;;;;;;;;;5011803;28;20821;-75
2021/04/16 07:15:38;;;;;;;1.13;0.50;;;;;;;;;;5010477;28;20446;-75
2021/04/16 07:18:04;;;;;;;0.80;0.60;;;;;;;;;;5011376;28;20954;-74
2021/04/16 07:20:30;;;;;;;1.00;0.83;;;;;;;;;;5010533;28;20419;-74
2021/04/16 07:22:57;;;;;;;1.20;0.63;;;;;;;;;;4996694;28;20456;-74
2021/04/16 07:25:23;;;;;;;0.97;0.87;;;;;;;;;;4991862;28;20456;-75
2021/04/16 07:27:50;;;;;;;1.40;0.83;;;;;;;;;;5005407;28;20451;-75
2021/04/16 07:30:30;;;;;;;0.80;0.70;;;;;;;;;;5011146;28;20847;-74
2021/04/16 07:32:58;;;;;;;0.80;0.70;;;;;;;;;;5006093;28;20409;-75
2021/04/16 07:35:24;;;;;;;2.40;0.90;;;;;;;;;;5006024;28;20489;-75
2021/04/16 07:38:05;;;;;;;0.70;0.60;;;;;;;;;;5007536;28;20813;-75
2021/04/16 07:40:33;;;;;;;1.30;0.97;;;;;;;;;;4990012;28;20416;-74
2021/04/16 07:42:59;;;;;;;0.70;0.40;;;;;;;;;;5003678;28;20505;-74
2021/04/16 07:45:27;;;;;;;0.70;0.57;;;;;;;;;;5011048;28;20404;-75
2021/04/16 07:47:55;;;;;;;1.23;0.67;;;;;;;;;;5010752;28;20440;-75
2021/04/16 07:50:41;;;;;;;0.80;0.60;;;;;;;;;;5010757;28;20474;-77
2021/04/16 07:53:25;;;;;;;0.70;0.50;;;;;;;;;;5008952;28;20428;-73
2021/04/16 07:56:03;;;;;;;1.57;0.83;;;;;;;;;;5008694;28;20411;-75
2021/04/16 07:58:30;;;;;;;0.70;0.50;;;;;;;;;;5010654;28;20415;-74
2021/04/16 08:00:56;;;;;;;1.30;0.57;;;;;;;;;;5003832;28;20436;-74
2021/04/16 08:03:25;;;;;;;0.70;0.40;;;;;;;;;;5001426;28;20478;-74
2021/04/16 08:05:51;;;;;;;1.53;0.97;;;;;;;;;;5008197;28;20405;-77
2021/04/16 08:08:17;;;;;;;0.80;0.67;;;;;;;;;;5016139;28;20411;-74
2021/04/16 08:10:47;;;;;;;0.80;0.40;;;;;;;;;;5011227;28;20407;-73
2021/04/16 08:13:15;;;;;;;0.70;0.40;;;;;;;;;;5009434;28;20817;-72
2021/04/16 08:15:41;;;;;;;1.23;0.90;;;;;;;;;;5010332;28;20412;-74
2021/04/16 08:18:35;;;;;;;0.70;0.50;;;;;;;;;;5031983;23;20490;-68
2021/04/16 08:21:11;;;;;;;0.80;0.60;;;;;;;;;;5006040;28;20462;-69
2021/04/16 08:23:46;;;;;;;1.07;0.67;;;;;;;;;;5013589;28;20451;-69
2021/04/16 08:26:13;;;;;;;0.90;0.60;;;;;;;;;;5021743;28;20447;-69
2021/04/16 08:28:39;;;;;;;0.70;0.50;;;;;;;;;;5010769;28;20402;-68
2021/04/16 08:31:07;;;;;;;0.70;0.50;;;;;;;;;;5009572;28;20747;-67
2021/04/16 08:33:46;;;;;;;0.73;0.50;;;;;;;;;;5012140;28;20412;-68
2021/04/16 08:36:19;;;;;;;0.90;0.90;;;;;;;;;;5011452;28;20421;-68
2021/04/16 08:39:01;;;;;;;0.80;0.60;;;;;;;;;;5025681;28;20419;-68
2021/04/16 08:41:28;;;;;;;0.70;0.40;;;;;;;;;;5021492;28;20406;-68
2021/04/16 08:44:00;;;;;;;0.93;0.60;;;;;;;;;;5019440;28;20483;-68
2021/04/16 08:46:36;;;;;;;0.80;0.50;;;;;;;;;;5033203;28;20411;-69
2021/04/16 08:49:21;;;;;;;0.90;0.60;;;;;;;;;;5031160;28;20397;-69
2021/04/16 08:51:54;;;;;;;1.00;0.73;;;;;;;;;;5016582;28;20406;-69
2021/04/16 08:54:25;;;;;;;0.70;0.50;;;;;;;;;;5012538;28;20395;-69
2021/04/16 08:56:57;;;;;;;3.00;2.67;;;;;;;;;;5017290;28;20446;-69
2021/04/16 08:59:24;;;;;;;0.80;0.60;;;;;;;;;;5020025;28;20413;-69
2021/04/16 09:01:54;;;;;;;0.77;0.50;;;;;;;;;;5012445;28;20499;-69
2021/04/16 09:04:32;;;;;;;0.80;0.50;;;;;;;;;;5019641;28;20442;-68
2021/04/16 09:06:59;;;;;;;0.80;0.50;;;;;;;;;;5021578;28;20516;-68
2021/04/16 09:09:42;;;;;;;0.70;0.50;;;;;;;;;;5022997;28;20500;-67
2021/04/16 09:12:08;;;;;;;0.73;0.47;;;;;;;;;;5020989;28;20383;-69
2021/04/16 09:14:34;;;;;;;0.77;0.53;;;;;;;;;;5011379;28;20818;-69
2021/04/16 09:17:01;;;;;;;1.00;0.70;;;;;;;;;;5011175;28;20392;-69
2021/04/16 09:19:27;;;;;;;1.10;0.70;;;;;;;;;;5014943;28;20837;-69
2021/04/16 09:22:03;;;;;;;0.90;0.70;;;;;;;;;;5013094;28;20811;-68
2021/04/16 09:24:49;;;;;;;0.80;0.67;;;;;;;;;;5013694;28;20430;-68
2021/04/16 09:27:15;;;;;;;1.93;0.90;;;;;;;;;;5022168;28;20762;-69
2021/04/16 09:29:42;;;;;;;2.10;1.13;;;;;;;;;;5032294;28;20810;-69
2021/04/16 09:32:27;;;;;;;2.23;0.60;;;;;;;;;;5017650;28;20769;-70
2021/04/16 09:34:53;;;;;;;3.67;0.73;;;;;;;;;;5024395;28;20437;-68
2021/04/16 09:37:27;;;;;;;1.17;0.60;;;;;;;;;;5020332;23;20556;-74
2021/04/16 09:40:12;;;;;;;1.90;1.00;;;;;;;;;;5007963;28;20791;-74
2021/04/16 09:42:40;;;;;;;2.53;1.30;;;;;;;;;;5023781;28;20406;-76
2021/04/16 09:45:26;;;;;;;0.80;0.70;;;;;;;;;;5024380;28;20503;-74
2021/04/16 09:47:53;;;;;;;0.80;0.50;;;;;;;;;;5011396;28;20457;-72
2021/04/16 09:50:24;;;;;;;1.73;0.60;;;;;;;;;;5015655;28;20379;-76
2021/04/16 09:53:08;;;;;;;1.53;0.70;;;;;;;;;;5014360;28;20391;-75
2021/04/16 09:55:53;;;;;;;0.90;0.60;;;;;;;;;;5009759;28;20821;-75
2021/04/16 09:58:31;;;;;;;0.70;0.60;;;;;;;;;;5012903;28;20396;-75
2021/04/16 10:01:00;;;;;;;0.70;0.50;;;;;;;;;;5013089;28;20478;-73
2021/04/16 10:03:26;;;;;;;12.63;10.03;;;;;;;;;;5018370;28;20431;-78
2021/04/16 10:05:55;;;;;;;0.80;0.70;;;;;;;;;;5011066;28;20783;-76
2021/04/16 10:08:30;;;;;;;1.47;0.70;;;;;;;;;;5015275;28;20428;-76
2021/04/16 10:11:04;;;;;;;0.90;0.60;;;;;;;;;;5004974;28;20412;-75
2021/04/16 10:13:31;;;;;;;0.70;0.50;;;;;;;;;;4998835;28;20406;-75
2021/04/16 10:16:00;;;;;;;0.70;0.50;;;;;;;;;;5000874;28;20505;-76
2021/04/16 10:18:28;;;;;;;0.70;0.50;;;;;;;;;;5007202;28;20512;-76
2021/04/16 10:20:57;;;;;;;0.97;0.67;;;;;;;;;;5010935;28;20766;-75
2021/04/16 10:23:25;;;;;;;1.10;0.60;;;;;;;;;;5005722;28;20854;-76
2021/04/16 10:41:13;;;;;;;0.80;0.60;;;;;;;;;;5003051;28;20402;-76
2021/04/16 12:38:14;;;;;;;0.80;0.60;;;;;;;;;;5006349;28;20475;-75
2021/04/16 12:40:40;;;;;;;1.23;0.70;;;;;;;;;;5007816;28;20400;-74
2021/04/16 12:43:06;;;;;;;1.00;0.70;;;;;;;;;;5013893;28;20458;-74
2021/04/16 12:45:33;;;;;;;0.90;0.50;;;;;;;;;;5008437;28;20808;-74
2021/04/16 12:47:59;;;;;;;0.70;0.50;;;;;;;;;;5009540;28;20433;-75
2021/04/16 12:50:26;;;;;;;1.10;0.60;;;;;;;;;;4998486;28;20402;-73
2021/04/16 12:52:52;;;;;;;0.73;0.53;;;;;;;;;;5026863;28;20391;-72
2021/04/16 12:55:21;;;;;;;1.10;0.70;;;;;;;;;;5010350;28;20896;-72
2021/04/16 12:57:49;;;;;;;2.10;0.63;;;;;;;;;;5013586;28;20444;-73
2021/04/16 13:00:23;;;;;;;0.97;0.60;;;;;;;;;;5017197;28;20425;-73
2021/04/16 13:02:56;;;;;;;2.57;0.60;;;;;;;;;;5010818;28;20853;-74
2021/04/16 13:05:22;;;;;;;1.43;0.60;;;;;;;;;;5014112;28;20420;-75
2021/04/16 13:07:47;;;;;;;0.70;0.50;;;;;;;;;;5013790;28;20440;-75
2021/04/16 13:10:15;;;;;;;1.37;0.90;;;;;;;;;;5003504;28;20390;-73
2021/04/16 13:12:41;;;;;;;1.27;0.70;;;;;;;;;;5005337;28;20473;-73
2021/04/16 13:15:08;;;;;;;0.70;0.50;;;;;;;;;;5003573;28;20412;-74
2021/04/16 13:17:34;;;;;;;0.90;0.70;;;;;;;;;;5013338;28;20431;-73
2021/04/16 13:20:00;;;;;;;0.80;0.60;;;;;;;;;;5001927;28;20710;-74
2021/04/16 13:22:27;;;;;;;0.90;0.73;;;;;;;;;;5012667;28;20766;-75
2021/04/16 13:24:54;;;;;;;2.03;1.30;;;;;;;;;;5011130;28;20450;-74
2021/04/16 13:27:29;;;;;;;0.97;0.70;;;;;;;;;;5002687;28;20432;-74
2021/04/16 13:29:55;;;;;;;1.00;0.67;;;;;;;;;;5013121;28;20914;-74
2021/04/16 13:32:26;;;;;;;1.00;0.60;;;;;;;;;;5013651;28;20879;-74
2021/04/16 13:34:56;;;;;;;1.00;0.60;;;;;;;;;;5017140;28;20420;-73
2021/04/16 13:37:24;;;;;;;0.80;0.60;;;;;;;;;;5018377;28;20436;-74
2021/04/16 13:39:50;;;;;;;0.80;0.60;;;;;;;;;;5027781;28;20440;-74
2021/04/16 13:42:17;;;;;;;1.10;1.00;;;;;;;;;;5013008;28;20420;-74
2021/04/16 13:44:43;;;;;;;0.80;0.60;;;;;;;;;;5025578;28;20427;-74
2021/04/16 13:47:16;;;;;;;0.87;0.70;;;;;;;;;;5013032;28;20422;-74
2021/04/16 13:49:42;;;;;;;11.80;0.90;;;;;;;;;;5011403;28;20420;-74
2021/04/16 13:52:08;;;;;;;0.83;0.80;;;;;;;;;;5012965;28;20417;-73
2021/04/16 13:54:35;;;;;;;5.97;0.80;;;;;;;;;;5008759;28;20427;-74
2021/04/16 13:57:01;;;;;;;1.00;0.63;;;;;;;;;;5017143;28;20416;-74
2021/04/16 13:59:28;;;;;;;3.40;1.00;;;;;;;;;;5032066;28;20411;-74
2021/04/16 14:01:54;;;;;;;4.60;0.90;;;;;;;;;;5024600;28;20409;-74
2021/04/16 14:04:22;;;;;;;1.40;0.80;;;;;;;;;;5021547;28;20965;-74
2021/04/16 14:06:49;;;;;;;1.03;0.80;;;;;;;;;;4998667;28;20819;-73
2021/04/16 14:09:17;;;;;;;0.80;0.60;;;;;;;;;;5011249;28;20923;-74
2021/04/16 14:11:43;;;;;;;1.00;0.70;;;;;;;;;;5007643;28;20420;-74
2021/04/16 14:14:13;;;;;;;1.27;0.73;;;;;;;;;;5028686;28;20479;-74
2021/04/16 14:16:43;;;;;;;0.70;0.60;;;;;;;;;;5011011;28;20406;-74
2021/04/16 14:19:11;;;;;;;0.90;0.80;;;;;;;;;;5005530;28;20403;-74
2021/04/16 14:21:38;;;;;;;1.10;0.70;;;;;;;;;;5017881;23;21057;-68
2021/04/16 14:24:05;;;;;;;0.70;0.47;;;;;;;;;;4991915;28;20980;-69
2021/04/16 14:26:31;;;;;;;0.70;0.50;;;;;;;;;;4972895;28;20834;-69
2021/04/16 14:28:57;;;;;;;0.90;0.60;;;;;;;;;;4986023;28;20432;-69
2021/04/16 14:31:23;;;;;;;0.80;0.53;;;;;;;;;;4991032;28;20795;-70
2021/04/16 14:33:48;;;;;;;0.90;0.67;;;;;;;;;;4991703;28;20415;-69
2021/04/16 14:36:15;;;;;;;0.80;0.57;;;;;;;;;;4991774;28;20429;-70
2021/04/16 14:38:41;;;;;;;4.87;1.27;;;;;;;;;;4991801;28;20383;-69
2021/04/16 14:41:08;;;;;;;0.83;0.77;;;;;;;;;;4991393;28;20410;-68
2021/04/16 14:43:34;;;;;;;1.60;0.80;;;;;;;;;;4991873;28;21077;-69
2021/04/16 14:46:00;;;;;;;1.70;0.60;;;;;;;;;;4991458;28;20426;-69
2021/04/16 14:48:27;;;;;;;1.10;0.77;;;;;;;;;;4994228;28;20768;-69
2021/04/16 14:50:54;;;;;;;0.70;0.50;;;;;;;;;;5007868;28;20383;-68
2021/04/16 14:53:40;;;;;;;1.00;0.60;;;;;;;;;;5008417;28;20856;-69
2021/04/16 14:56:07;;;;;;;1.07;0.60;;;;;;;;;;4991619;28;20414;-70
2021/04/16 14:58:35;;;;;;;0.80;0.60;;;;;;;;;;4995539;28;20389;-69
2021/04/16 15:01:03;;;;;;;1.10;0.97;;;;;;;;;;5011004;28;20387;-70
2021/04/16 15:03:31;;;;;;;0.80;0.60;;;;;;;;;;4992986;28;20526;-69
2021/04/16 15:05:58;;;;;;;1.47;1.17;;;;;;;;;;4991775;28;20464;-69
2021/04/16 15:08:27;;;;;;;0.77;0.60;;;;;;;;;;4998399;28;20815;-68
2021/04/16 15:11:00;;;;;;;0.80;0.60;;;;;;;;;;4993306;28;20413;-68
2021/04/16 15:13:27;;;;;;;0.70;0.50;;;;;;;;;;4991437;28;20417;-69
2021/04/16 15:15:53;;;;;;;0.80;0.60;;;;;;;;;;4991652;28;20476;-70
2021/04/16 15:18:20;;;;;;;0.70;0.60;;;;;;;;;;4991751;28;20403;-69
2021/04/16 15:20:48;;;;;;;1.20;0.60;;;;;;;;;;4999499;28;20404;-69
2021/04/16 15:23:16;;;;;;;1.00;0.60;;;;;;;;;;4993882;28;20457;-68
2021/04/16 15:25:46;;;;;;;0.80;0.60;;;;;;;;;;4989422;28;20499;-69
2021/04/16 15:28:22;;;;;;;0.87;0.70;;;;;;;;;;4991473;28;20409;-68
2021/04/16 15:30:48;;;;;;;0.90;0.70;;;;;;;;;;4990543;28;20424;-69
2021/04/16 15:47:03;;;;;;;0.80;0.60;;;;;;;;;;5025896;28;20494;-67
2021/04/16 15:49:29;;;;;;;1.00;0.57;;;;;;;;;;5030130;28;20817;-68
2021/04/16 15:51:55;;;;;;;0.80;0.50;;;;;;;;;;5022072;28;20395;-68
2021/04/16 15:54:21;;;;;;;0.77;0.50;;;;;;;;;;5031223;28;20456;-68
2021/04/16 15:56:49;;;;;;;0.70;0.40;;;;;;;;;;5032312;28;20451;-68
2021/04/16 15:59:27;;;;;;;0.80;0.50;;;;;;;;;;5033914;28;20404;-68
2021/04/16 16:01:53;;;;;;;1.03;0.57;;;;;;;;;;5032801;28;20437;-68
2021/04/16 16:04:19;;;;;;;0.70;0.50;;;;;;;;;;5018574;28;20527;-68
2021/04/16 16:06:45;;;;;;;1.50;0.60;;;;;;;;;;5033022;28;20410;-68
2021/04/16 16:09:12;;;;;;;1.30;0.57;;;;;;;;;;5042053;28;20500;-67
2021/04/16 16:11:48;;;;;;;0.70;0.50;;;;;;;;;;5030442;28;20432;-68
2021/04/16 16:14:17;;;;;;;0.70;0.50;;;;;;;;;;5014130;28;20479;-68
2021/04/16 16:16:45;;;;;;;0.70;0.50;;;;;;;;;;5032566;28;20417;-68
2021/04/16 16:19:11;;;;;;;0.80;0.60;;;;;;;;;;5033362;28;20430;-67
2021/04/16 16:21:40;;;;;;;0.70;0.47;;;;;;;;;;5034900;28;20520;-69
2021/04/16 16:24:06;;;;;;;0.70;0.50;;;;;;;;;;5029037;28;20451;-70
2021/04/16 16:26:38;;;;;;;0.80;0.53;;;;;;;;;;5030821;28;20944;-70
2021/04/16 16:29:06;;;;;;;0.87;0.60;;;;;;;;;;5032692;28;20408;-70
2021/04/16 16:31:33;;;;;;;3.80;0.60;;;;;;;;;;5030722;28;20427;-70
2021/04/16 16:33:59;;;;;;;0.70;0.40;;;;;;;;;;5020333;28;20406;-70
2021/04/16 16:36:25;;;;;;;1.03;0.50;;;;;;;;;;5029343;28;20444;-71
2021/04/16 16:38:51;;;;;;;1.00;0.80;;;;;;;;;;5022226;28;20422;-71
2021/04/16 16:41:17;;;;;;;0.90;0.63;;;;;;;;;;5015400;28;20452;-71
2021/04/16 16:43:45;;;;;;;0.80;0.60;;;;;;;;;;5019613;28;20534;-70
2021/04/16 16:46:12;;;;;;;0.70;0.40;;;;;;;;;;5023361;28;20934;-70
2021/04/16 16:48:38;;;;;;;6.63;0.97;;;;;;;;;;5022676;28;20409;-70
2021/04/16 16:51:05;;;;;;;3.63;0.70;;;;;;;;;;5019476;28;20720;-70
2021/04/16 16:53:31;;;;;;;1.03;0.70;;;;;;;;;;5021393;28;20396;-70
2021/04/16 16:55:58;;;;;;;4.00;1.17;;;;;;;;;;5022680;28;20517;-71
2021/04/16 16:58:30;;;;;;;1.00;0.80;;;;;;;;;;5029045;28;21193;-70
2021/04/16 17:00:57;;;;;;;0.80;0.70;;;;;;;;;;5029405;28;20416;-70
2021/04/16 17:03:24;;;;;;;0.70;0.50;;;;;;;;;;5018874;28;20466;-70
2021/04/16 17:05:50;;;;;;;0.83;0.50;;;;;;;;;;5022384;28;20449;-69
2021/04/16 17:08:16;;;;;;;0.90;0.70;;;;;;;;;;5028930;28;20427;-72
2021/04/16 17:10:45;;;;;;;0.90;0.40;;;;;;;;;;5029988;28;20481;-69
2021/04/16 17:13:11;;;;;;;1.13;0.80;;;;;;;;;;5027108;28;20388;-69